createdAt,value
2022-12-25T00:02:16.638Z,-5.40
2022-12-25T00:04:44.680Z,-5.61
2022-12-25T00:07:14.013Z,-5.83
2022-12-25T00:09:42.252Z,-5.31
2022-12-25T00:12:10.104Z,-5.38
2022-12-25T00:14:37.933Z,-5.41
2022-12-25T00:17:06.024Z,-5.45
2022-12-25T00:19:34.108Z,-6.04
2022-12-25T00:22:02.010Z,-5.35
2022-12-25T00:24:31.595Z,-5.31
2022-12-25T00:26:59.429Z,-5.25
2022-12-25T00:29:27.257Z,-5.20
2022-12-25T00:31:55.481Z,-5.14
2022-12-25T00:34:23.378Z,-5.08
2022-12-25T00:36:51.518Z,-5.04
2022-12-25T00:39:19.883Z,-5.11
2022-12-25T00:42:06.293Z,-4.98
2022-12-25T00:44:34.561Z,-5.15
2022-12-25T00:47:02.807Z,-4.95
2022-12-25T00:49:30.723Z,-4.94
2022-12-25T00:51:58.980Z,-4.92
2022-12-25T00:54:26.945Z,-4.90
2022-12-25T00:56:56.156Z,-5.64
2022-12-25T00:59:24.205Z,-5.35
2022-12-25T01:01:52.281Z,-5.38
2022-12-25T01:04:20.294Z,-4.78
2022-12-25T01:06:48.401Z,-4.77
2022-12-25T01:09:33.753Z,-4.75
2022-12-25T01:12:03.232Z,-4.71
2022-12-25T01:14:31.085Z,-4.68
2022-12-25T01:16:58.903Z,-4.67
2022-12-25T01:19:26.911Z,-4.66
2022-12-25T01:21:54.782Z,-4.62
2022-12-25T01:24:22.666Z,-4.58
2022-12-25T01:26:50.720Z,-4.55
2022-12-25T01:29:19.921Z,-4.52
2022-12-25T01:31:47.949Z,-4.46
2022-12-25T01:34:16.096Z,-4.42
2022-12-25T01:36:43.964Z,-4.67
2022-12-25T01:39:11.862Z,-4.39
2022-12-25T01:41:39.913Z,-4.37
2022-12-25T01:44:09.983Z,-4.37
2022-12-25T01:46:39.162Z,-4.52
2022-12-25T01:49:12.715Z,-4.32
2022-12-25T01:51:44.172Z,-4.29
2022-12-25T01:54:15.361Z,-4.48
2022-12-25T01:56:45.773Z,-4.25
2022-12-25T01:59:17.520Z,-4.22
2022-12-25T02:01:47.561Z,-4.16
2022-12-25T02:04:21.120Z,-4.11
2022-12-25T02:06:51.027Z,-4.09
2022-12-25T02:09:19.758Z,-4.05
2022-12-25T02:12:00.430Z,-4.04
2022-12-25T02:14:32.415Z,-4.02
2022-12-25T02:17:11.753Z,-4.15
2022-12-25T02:20:03.737Z,-3.99
2022-12-25T02:22:46.004Z,-4.51
2022-12-25T02:25:32.395Z,-4.21
2022-12-25T02:28:11.359Z,-3.91
2022-12-25T02:30:43.802Z,-3.90
2022-12-25T02:33:34.849Z,-4.71
2022-12-25T02:36:09.398Z,-4.13
2022-12-25T02:39:01.421Z,-3.88
2022-12-25T02:41:30.793Z,-3.87
2022-12-25T02:44:20.532Z,-3.89
2022-12-25T02:47:06.662Z,-3.90
2022-12-25T02:49:53.740Z,-3.93
2022-12-25T02:52:41.332Z,-3.94
2022-12-25T02:55:31.342Z,-3.94
2022-12-25T02:58:22.616Z,-4.09
2022-12-25T03:01:18.072Z,-4.07
2022-12-25T03:04:07.625Z,-4.32
2022-12-25T03:06:44.071Z,-3.95
2022-12-25T03:09:33.551Z,-4.16
2022-12-25T03:12:06.694Z,-3.92
2022-12-25T03:14:52.383Z,-4.70
2022-12-25T03:17:21.907Z,-4.23
2022-12-25T03:20:07.372Z,-3.90
2022-12-25T03:22:53.637Z,-4.05
2022-12-25T03:25:39.038Z,-3.91
2022-12-25T03:28:08.072Z,-3.93
2022-12-25T03:31:02.387Z,-4.13
2022-12-25T03:33:47.025Z,-3.94
2022-12-25T03:36:23.649Z,-3.94
2022-12-25T03:39:24.783Z,-3.92
2022-12-25T03:42:19.110Z,-3.91
2022-12-25T03:45:15.564Z,-3.87
2022-12-25T03:48:01.645Z,-3.83
2022-12-25T03:50:52.576Z,-4.02
2022-12-25T03:53:42.952Z,-4.10
2022-12-25T03:56:29.649Z,-3.83
2022-12-25T03:59:23.235Z,-4.55
2022-12-25T04:02:10.353Z,-3.85
2022-12-25T04:04:56.121Z,-3.84
2022-12-25T04:07:42.851Z,-4.37
2022-12-25T04:10:29.044Z,-3.87
2022-12-25T04:13:14.450Z,-3.85
2022-12-25T04:15:59.851Z,-3.87
2022-12-25T04:18:45.256Z,-4.00
2022-12-25T04:21:30.671Z,-3.89
2022-12-25T04:24:17.628Z,-3.89
2022-12-25T04:27:02.989Z,-3.87
2022-12-25T04:29:48.210Z,-3.83
2022-12-25T04:32:33.781Z,-4.05
2022-12-25T04:35:19.261Z,-3.83
2022-12-25T04:37:47.463Z,-3.82
2022-12-25T04:40:17.051Z,-3.80
2022-12-25T04:42:45.093Z,-4.47
2022-12-25T04:45:13.372Z,-3.80
2022-12-25T04:47:41.466Z,-3.80
2022-12-25T04:50:09.947Z,-3.80
2022-12-25T04:52:38.623Z,-3.79
2022-12-25T04:55:07.629Z,-3.79
2022-12-25T04:57:37.241Z,-3.79
2022-12-25T05:00:06.684Z,-4.19
2022-12-25T05:02:34.850Z,-3.77
2022-12-25T05:05:03.031Z,-3.77
2022-12-25T05:07:30.978Z,-3.79
2022-12-25T05:09:59.153Z,-4.21
2022-12-25T05:12:27.115Z,-3.81
2022-12-25T05:14:56.418Z,-4.03
2022-12-25T05:17:24.230Z,-3.79
2022-12-25T05:19:52.180Z,-3.81
2022-12-25T05:22:20.159Z,-4.63
2022-12-25T05:24:48.096Z,-3.81
2022-12-25T05:27:16.424Z,-4.25
2022-12-25T05:29:44.478Z,-3.83
2022-12-25T05:32:13.814Z,-3.82
2022-12-25T05:34:41.839Z,-4.05
2022-12-25T05:37:09.865Z,-3.84
2022-12-25T05:39:37.780Z,-3.81
2022-12-25T05:42:05.733Z,-3.79
2022-12-25T05:44:33.625Z,-3.80
2022-12-25T05:47:01.540Z,-3.86
2022-12-25T05:49:30.968Z,-3.96
2022-12-25T05:51:58.938Z,-3.93
2022-12-25T05:54:26.915Z,-3.94
2022-12-25T05:56:55.012Z,-3.94
2022-12-25T05:59:22.970Z,-3.94
2022-12-25T06:01:51.034Z,-3.92
2022-12-25T06:04:19.202Z,-3.94
2022-12-25T06:06:48.493Z,-4.17
2022-12-25T06:09:16.520Z,-4.00
2022-12-25T06:11:44.880Z,-4.19
2022-12-25T06:14:14.018Z,-3.99
2022-12-25T06:16:42.106Z,-3.99
2022-12-25T06:19:10.302Z,-4.02
2022-12-25T06:21:38.323Z,-4.00
2022-12-25T06:24:08.352Z,-3.99
2022-12-25T06:26:36.335Z,-4.50
2022-12-25T06:29:04.441Z,-3.94
2022-12-25T06:31:32.613Z,-3.92
2022-12-25T06:34:00.611Z,-3.90
2022-12-25T06:36:29.349Z,-3.89
2022-12-25T06:38:58.262Z,-4.18
2022-12-25T06:41:30.551Z,-4.62
2022-12-25T06:44:00.295Z,-4.55
2022-12-25T06:46:31.709Z,-3.94
2022-12-25T06:49:01.956Z,-3.94
2022-12-25T06:51:32.773Z,-4.17
2022-12-25T06:54:03.835Z,-4.01
2022-12-25T06:56:34.905Z,-4.00
2022-12-25T06:59:04.946Z,-3.99
2022-12-25T07:01:36.385Z,-4.84
2022-12-25T07:04:07.306Z,-3.98
2022-12-25T07:06:35.559Z,-3.99
2022-12-25T07:09:03.882Z,-4.01
2022-12-25T07:11:33.123Z,-4.35
2022-12-25T07:14:00.963Z,-4.12
2022-12-25T07:16:29.158Z,-4.13
2022-12-25T07:18:57.077Z,-4.12
2022-12-25T07:21:24.908Z,-4.14
2022-12-25T07:23:53.065Z,-4.21
2022-12-25T07:26:21.037Z,-4.27
2022-12-25T07:28:50.245Z,-4.27
2022-12-25T07:31:19.729Z,-4.94
2022-12-25T07:33:47.959Z,-4.26
2022-12-25T07:36:16.461Z,-4.20
2022-12-25T07:38:45.060Z,-4.21
2022-12-25T07:41:13.932Z,-4.20
2022-12-25T07:43:42.288Z,-4.18
2022-12-25T07:46:12.344Z,-4.19
2022-12-25T07:48:40.309Z,-4.65
2022-12-25T07:51:11.475Z,-4.15
2022-12-25T07:53:40.252Z,-4.16
2022-12-25T07:56:11.372Z,-4.61
2022-12-25T07:58:39.899Z,-4.14
2022-12-25T08:01:09.785Z,-4.11
2022-12-25T08:03:39.358Z,-4.25
2022-12-25T08:06:10.460Z,-4.06
2022-12-25T08:08:40.160Z,-4.04
2022-12-25T08:11:09.603Z,-4.27
2022-12-25T08:13:38.598Z,-4.15
2022-12-25T08:16:09.191Z,-4.28
2022-12-25T08:18:40.080Z,-4.33
2022-12-25T08:21:09.623Z,-4.52
2022-12-25T08:23:38.934Z,-4.22
2022-12-25T08:26:08.530Z,-4.12
2022-12-25T08:28:37.254Z,-4.04
2022-12-25T08:31:10.589Z,-3.98
2022-12-25T08:33:40.723Z,-4.05
2022-12-25T08:36:10.814Z,-3.91
2022-12-25T08:38:39.651Z,-3.93
2022-12-25T08:41:08.228Z,-4.01
2022-12-25T08:43:36.149Z,-4.05
2022-12-25T08:46:04.678Z,-4.43
2022-12-25T08:48:32.661Z,-4.04
2022-12-25T08:51:02.359Z,-4.12
2022-12-25T08:53:30.851Z,-4.04
2022-12-25T08:56:00.044Z,-3.99
2022-12-25T08:58:28.744Z,-3.97
2022-12-25T09:00:57.082Z,-3.94
2022-12-25T09:03:25.559Z,-3.89
2022-12-25T09:05:54.164Z,-3.87
2022-12-25T09:08:23.481Z,-3.84
2022-12-25T09:10:51.358Z,-4.36
2022-12-25T09:13:19.247Z,-3.75
2022-12-25T09:15:47.302Z,-3.64
2022-12-25T09:18:15.155Z,-3.70
2022-12-25T09:20:43.033Z,-3.49
2022-12-25T09:23:14.149Z,-3.40
2022-12-25T09:25:43.644Z,-3.49
2022-12-25T09:28:11.439Z,-3.43
2022-12-25T09:30:39.409Z,-3.37
2022-12-25T09:33:07.506Z,-3.53
2022-12-25T09:35:35.635Z,-3.38
2022-12-25T09:38:03.705Z,-3.34
2022-12-25T09:40:33.565Z,-3.34
2022-12-25T09:43:04.601Z,-3.45
2022-12-25T09:45:40.049Z,-3.21
2022-12-25T09:48:08.269Z,-3.28
2022-12-25T09:50:43.658Z,-3.24
2022-12-25T09:53:18.013Z,-3.25
2022-12-25T09:55:54.053Z,-3.28
2022-12-25T09:58:23.506Z,-3.20
2022-12-25T10:00:58.185Z,-3.11
2022-12-25T10:03:49.789Z,-3.02
2022-12-25T10:06:22.162Z,-3.40
2022-12-25T10:09:14.111Z,-2.99
2022-12-25T10:11:57.025Z,-3.05
2022-12-25T10:14:35.454Z,-2.52
2022-12-25T10:17:19.118Z,-2.36
2022-12-25T10:19:54.269Z,-2.29
2022-12-25T10:22:33.100Z,-2.25
2022-12-25T10:25:01.914Z,-2.38
2022-12-25T10:27:33.673Z,-2.26
2022-12-25T10:30:06.992Z,-2.30
2022-12-25T10:32:35.149Z,-2.52
2022-12-25T10:35:03.031Z,-2.38
2022-12-25T10:37:31.155Z,-2.41
2022-12-25T10:39:59.170Z,-2.42
2022-12-25T10:42:39.860Z,-2.43
2022-12-25T10:45:10.726Z,-2.74
2022-12-25T10:47:42.783Z,-2.73
2022-12-25T10:50:14.001Z,-2.58
2022-12-25T10:52:55.152Z,-2.74
2022-12-25T10:55:28.495Z,-2.53
2022-12-25T10:57:58.060Z,-2.53
2022-12-25T11:00:29.914Z,-2.53
2022-12-25T11:02:58.780Z,-2.55
2022-12-25T11:05:29.379Z,-2.75
2022-12-25T11:07:59.593Z,-2.61
2022-12-25T11:10:31.313Z,-2.62
2022-12-25T11:13:00.068Z,-2.68
2022-12-25T11:15:37.090Z,-2.77
2022-12-25T11:18:05.749Z,-2.86
2022-12-25T11:20:33.980Z,-2.97
2022-12-25T11:23:01.985Z,-2.93
2022-12-25T11:25:29.870Z,-2.79
2022-12-25T11:28:00.117Z,-2.87
2022-12-25T11:30:29.772Z,-2.73
2022-12-25T11:33:02.059Z,-2.72
2022-12-25T11:35:38.208Z,-2.72
2022-12-25T11:38:06.048Z,-2.79
2022-12-25T11:40:41.665Z,-2.85
2022-12-25T11:43:15.811Z,-2.84
2022-12-25T11:45:50.205Z,-2.83
2022-12-25T11:48:25.656Z,-2.84
2022-12-25T11:50:57.394Z,-2.84
2022-12-25T11:53:32.528Z,-2.92
2022-12-25T11:56:04.450Z,-3.04
2022-12-25T11:58:37.441Z,-2.78
2022-12-25T12:01:09.993Z,-2.75
2022-12-25T12:03:41.693Z,-2.65
2022-12-25T12:06:15.903Z,-2.50
2022-12-25T12:08:44.587Z,-2.31
2022-12-25T12:11:20.726Z,-2.06
2022-12-25T12:14:13.318Z,-1.86
2022-12-25T12:16:41.369Z,-1.60
2022-12-25T12:19:14.763Z,-1.40
2022-12-25T12:21:44.335Z,-1.21
2022-12-25T12:24:18.264Z,-1.02
2022-12-25T12:26:48.843Z,-1.66
2022-12-25T12:29:25.561Z,-0.67
2022-12-25T12:31:54.783Z,-0.61
2022-12-25T12:34:27.131Z,-0.55
2022-12-25T12:37:00.407Z,-0.50
2022-12-25T12:39:34.271Z,-0.52
2022-12-25T12:42:03.032Z,-0.59
2022-12-25T12:44:35.172Z,-0.69
2022-12-25T12:47:03.084Z,-0.98
2022-12-25T12:49:33.751Z,-1.13
2022-12-25T12:52:07.665Z,-1.43
2022-12-25T12:54:56.038Z,-1.44
2022-12-25T12:57:25.954Z,-1.77
2022-12-25T12:59:54.173Z,-1.93
2022-12-25T13:02:45.589Z,-1.90
2022-12-25T13:05:21.432Z,-1.93
2022-12-25T13:08:00.182Z,-2.00
2022-12-25T13:10:33.703Z,-2.10
2022-12-25T13:13:06.406Z,-2.19
2022-12-25T13:15:36.800Z,-2.26
2022-12-25T13:18:08.465Z,-2.34
2022-12-25T13:20:44.561Z,-2.41
2022-12-25T13:23:22.917Z,-2.52
2022-12-25T13:25:53.754Z,-2.64
2022-12-25T13:28:26.420Z,-2.66
2022-12-25T13:30:54.449Z,-2.75
2022-12-25T13:33:23.413Z,-2.93
2022-12-25T13:35:52.996Z,-2.91
2022-12-25T13:38:22.437Z,-3.00
2022-12-25T13:41:12.294Z,-3.16
2022-12-25T13:43:41.044Z,-3.23
2022-12-25T13:46:09.311Z,-3.32
2022-12-25T13:48:37.267Z,-3.39
2022-12-25T13:51:06.885Z,-3.59
2022-12-25T13:53:34.818Z,-3.55
2022-12-25T13:56:02.845Z,-3.64
2022-12-25T13:58:34.813Z,-3.73
2022-12-25T14:01:04.310Z,-3.82
2022-12-25T14:03:36.619Z,-3.89
2022-12-25T14:06:08.540Z,-4.02
2022-12-25T14:08:37.398Z,-3.99
2022-12-25T14:11:07.270Z,-4.03
2022-12-25T14:13:41.625Z,-4.06
2022-12-25T14:16:10.353Z,-4.07
2022-12-25T14:18:38.618Z,-4.15
2022-12-25T14:21:13.135Z,-4.09
2022-12-25T14:23:45.271Z,-4.25
2022-12-25T14:26:18.042Z,-4.06
2022-12-25T14:28:49.942Z,-4.02
2022-12-25T14:31:18.526Z,-4.15
2022-12-25T14:33:47.445Z,-3.93
2022-12-25T14:36:17.097Z,-3.77
2022-12-25T14:38:46.124Z,-3.73
2022-12-25T14:41:33.446Z,-3.71
2022-12-25T14:44:04.300Z,-3.86
2022-12-25T14:46:34.306Z,-3.73
2022-12-25T14:49:04.207Z,-3.77
2022-12-25T14:51:38.486Z,-4.21
2022-12-25T14:54:16.631Z,-3.87
2022-12-25T14:56:48.779Z,-3.83
2022-12-25T14:59:19.968Z,-3.88
2022-12-25T15:01:54.246Z,-4.31
2022-12-25T15:04:23.830Z,-3.98
2022-12-25T15:06:57.968Z,-4.02
2022-12-25T15:09:26.631Z,-4.05
2022-12-25T15:11:56.741Z,-4.05
2022-12-25T15:14:25.254Z,-4.04
2022-12-25T15:16:54.938Z,-4.10
2022-12-25T15:19:31.764Z,-4.18
2022-12-25T15:22:04.420Z,-4.03
2022-12-25T15:24:33.128Z,-4.00
2022-12-25T15:27:01.631Z,-4.17
2022-12-25T15:30:07.891Z,-3.98
2022-12-25T15:32:20.025Z,-4.07
2022-12-25T15:34:50.075Z,-4.01
2022-12-25T15:37:19.863Z,-4.01
2022-12-25T15:39:48.039Z,-3.96
2022-12-25T15:42:19.557Z,-3.84
2022-12-25T15:44:47.509Z,-3.88
2022-12-25T15:47:17.198Z,-3.95
2022-12-25T15:49:45.171Z,-3.50
2022-12-25T15:52:15.633Z,-3.38
2022-12-25T15:54:45.364Z,-3.25
2022-12-25T15:57:17.805Z,-3.13
2022-12-25T15:59:45.834Z,-3.04
2022-12-25T16:02:17.465Z,-3.21
2022-12-25T16:04:45.762Z,-2.92
2022-12-25T16:07:16.369Z,-2.88
2022-12-25T16:09:46.158Z,-2.90
2022-12-25T16:12:14.518Z,-2.90
2022-12-25T16:14:42.467Z,-2.93
2022-12-25T16:17:13.542Z,-2.97
2022-12-25T16:19:41.450Z,-3.03
2022-12-25T16:22:13.036Z,-3.21
2022-12-25T16:24:41.035Z,-3.52
2022-12-25T16:27:10.451Z,-3.11
2022-12-25T16:29:38.321Z,-3.19
2022-12-25T16:32:06.250Z,-2.99
2022-12-25T16:34:34.237Z,-3.01
2022-12-25T16:37:02.095Z,-2.93
2022-12-25T16:39:30.079Z,-2.92
2022-12-25T16:41:58.076Z,-2.94
2022-12-25T16:44:27.303Z,-2.93
2022-12-25T16:46:55.515Z,-3.00
2022-12-25T16:49:23.764Z,-2.88
2022-12-25T16:51:51.599Z,-2.78
2022-12-25T16:54:19.681Z,-2.68
2022-12-25T16:56:48.067Z,-2.68
2022-12-25T16:59:15.928Z,-2.52
2022-12-25T17:01:45.370Z,-2.49
2022-12-25T17:04:13.612Z,-2.43
2022-12-25T17:06:41.471Z,-2.40
2022-12-25T17:09:09.474Z,-2.60
2022-12-25T17:11:37.468Z,-2.31
2022-12-25T17:14:06.309Z,-2.20
2022-12-25T17:16:36.465Z,-2.14
2022-12-25T17:19:09.939Z,-2.16
2022-12-25T17:21:38.823Z,-2.52
2022-12-25T17:24:07.946Z,-2.04
2022-12-25T17:26:35.830Z,-2.09
2022-12-25T17:29:04.038Z,-2.08
2022-12-25T17:31:32.010Z,-2.02
2022-12-25T17:34:01.541Z,-2.04
2022-12-25T17:36:31.401Z,-2.11
2022-12-25T17:39:00.429Z,-1.99
2022-12-25T17:41:28.605Z,-1.88
2022-12-25T17:43:56.549Z,-1.92
2022-12-25T17:46:27.488Z,-1.76
2022-12-25T17:48:56.988Z,-1.73
2022-12-25T17:51:27.295Z,-1.45
2022-12-25T17:54:00.423Z,-1.33
2022-12-25T17:56:29.180Z,-1.30
2022-12-25T17:58:59.317Z,-1.16
2022-12-25T18:01:29.307Z,-0.99
2022-12-25T18:03:57.405Z,-1.36
2022-12-25T18:06:26.137Z,-0.70
2022-12-25T18:08:57.119Z,-0.57
2022-12-25T18:11:29.280Z,-0.44
2022-12-25T18:13:58.323Z,-0.31
2022-12-25T18:16:27.264Z,-0.24
2022-12-25T18:18:55.515Z,-0.21
2022-12-25T18:21:23.827Z,-0.18
2022-12-25T18:23:52.002Z,-0.12
2022-12-25T18:26:22.553Z,-0.04
2022-12-25T18:28:50.962Z,0.09
2022-12-25T18:31:20.980Z,0.20
2022-12-25T18:33:50.068Z,0.29
2022-12-25T18:36:20.176Z,0.21
2022-12-25T18:38:48.231Z,0.41
2022-12-25T18:41:16.166Z,0.43
2022-12-25T18:43:53.770Z,0.40
2022-12-25T18:46:24.754Z,0.38
2022-12-25T18:48:53.517Z,0.40
2022-12-25T18:51:21.355Z,0.36
2022-12-25T18:53:49.546Z,0.37
2022-12-25T18:56:18.568Z,0.37
2022-12-25T18:58:48.423Z,0.34
2022-12-25T19:01:19.312Z,0.39
2022-12-25T19:03:48.975Z,0.15
2022-12-25T19:06:21.871Z,0.40
2022-12-25T19:08:49.896Z,0.12
2022-12-25T19:11:18.686Z,0.39
2022-12-25T19:13:48.717Z,0.42
2022-12-25T19:16:16.636Z,0.46
2022-12-25T19:18:44.728Z,0.44
2022-12-25T19:21:12.821Z,0.41
2022-12-25T19:23:41.392Z,0.32
2022-12-25T19:26:10.874Z,0.35
2022-12-25T19:28:40.431Z,0.36
2022-12-25T19:31:11.076Z,0.39
2022-12-25T19:33:40.825Z,0.47
2022-12-25T19:36:11.673Z,0.58
2022-12-25T19:38:39.923Z,0.63
2022-12-25T19:41:08.700Z,0.65
2022-12-25T19:43:39.564Z,0.67
2022-12-25T19:46:11.701Z,0.70
2022-12-25T19:48:39.679Z,0.59
2022-12-25T19:51:16.398Z,0.67
2022-12-25T19:53:44.199Z,0.68
2022-12-25T19:56:12.179Z,0.67
2022-12-25T19:58:40.458Z,0.65
2022-12-25T20:01:13.503Z,0.72
2022-12-25T20:03:46.334Z,0.76
2022-12-25T20:06:18.837Z,0.80
2022-12-25T20:08:47.256Z,0.73
2022-12-25T20:11:15.302Z,0.79
2022-12-25T20:13:43.104Z,0.79
2022-12-25T20:16:13.020Z,0.83
2022-12-25T20:18:41.428Z,0.85
2022-12-25T20:21:11.723Z,0.85
2022-12-25T20:23:39.768Z,0.89
2022-12-25T20:26:07.924Z,0.75
2022-12-25T20:28:37.739Z,0.84
2022-12-25T20:31:10.041Z,0.95
2022-12-25T20:33:39.410Z,0.72
2022-12-25T20:36:08.418Z,0.79
2022-12-25T20:38:37.047Z,0.83
2022-12-25T20:41:27.554Z,0.77
2022-12-25T20:43:56.903Z,1.04
2022-12-25T20:46:25.104Z,1.06
2022-12-25T20:48:55.012Z,1.08
2022-12-25T20:51:25.063Z,1.06
2022-12-25T20:53:53.840Z,1.01
2022-12-25T20:56:23.681Z,0.98
2022-12-25T20:58:54.719Z,0.95
2022-12-25T21:01:22.844Z,0.97
2022-12-25T21:03:50.908Z,0.88
2022-12-25T21:06:20.926Z,0.96
2022-12-25T21:08:48.798Z,0.60
2022-12-25T21:11:17.638Z,0.91
2022-12-25T21:13:47.029Z,0.91
2022-12-25T21:16:17.200Z,0.93
2022-12-25T21:18:45.702Z,0.88
2022-12-25T21:21:14.193Z,0.96
2022-12-25T21:23:43.815Z,1.00
2022-12-25T21:26:14.030Z,1.02
2022-12-25T21:28:42.173Z,1.00
2022-12-25T21:31:10.321Z,1.05
2022-12-25T21:33:52.548Z,0.89
2022-12-25T21:36:23.151Z,1.03
2022-12-25T21:38:56.299Z,1.02
2022-12-25T21:41:24.894Z,1.05
2022-12-25T21:43:53.000Z,1.10
2022-12-25T21:46:21.129Z,1.12
2022-12-25T21:48:49.523Z,1.16
2022-12-25T21:51:37.283Z,1.18
2022-12-25T21:54:07.027Z,1.17
2022-12-25T21:56:43.452Z,0.96
2022-12-25T21:59:15.843Z,1.14
2022-12-25T22:01:45.209Z,1.15
2022-12-25T22:04:14.448Z,1.06
2022-12-25T22:06:59.952Z,1.17
2022-12-25T22:09:29.469Z,0.95
2022-12-25T22:12:14.774Z,1.29
2022-12-25T22:14:56.741Z,1.34
2022-12-25T22:17:44.144Z,1.27
2022-12-25T22:20:14.326Z,1.44
2022-12-25T22:22:42.152Z,1.46
2022-12-25T22:25:12.040Z,1.50
2022-12-25T22:27:41.383Z,1.48
2022-12-25T22:30:11.261Z,1.52
2022-12-25T22:32:39.295Z,1.54
2022-12-25T22:35:07.967Z,1.57
2022-12-25T22:37:36.116Z,1.27
2022-12-25T22:40:04.458Z,1.59
2022-12-25T22:42:34.252Z,1.63
2022-12-25T22:45:02.100Z,1.66
2022-12-25T22:47:30.242Z,1.71
2022-12-25T22:49:58.087Z,1.76
2022-12-25T22:52:26.001Z,1.80
2022-12-25T22:54:54.064Z,1.83
2022-12-25T22:57:21.888Z,1.72
2022-12-25T22:59:52.609Z,1.92
2022-12-25T23:02:21.409Z,1.95
2022-12-25T23:04:49.842Z,1.96
2022-12-25T23:07:18.050Z,1.96
2022-12-25T23:09:46.603Z,1.95
2022-12-25T23:12:28.368Z,1.94
2022-12-25T23:14:58.294Z,1.86
2022-12-25T23:17:43.781Z,1.83
2022-12-25T23:20:32.729Z,1.95
2022-12-25T23:23:18.360Z,1.78
2022-12-25T23:26:03.706Z,1.99
2022-12-25T23:28:49.001Z,2.01
2022-12-25T23:31:18.525Z,2.04
2022-12-25T23:33:46.413Z,2.06
2022-12-25T23:36:14.422Z,2.08
2022-12-25T23:38:42.425Z,2.08
2022-12-25T23:41:10.288Z,2.11
2022-12-25T23:43:38.204Z,2.11
2022-12-25T23:46:06.383Z,1.95
2022-12-25T23:48:35.644Z,2.14
2022-12-25T23:51:05.015Z,2.14
2022-12-25T23:53:33.116Z,2.15
2022-12-25T23:56:01.355Z,2.18
2022-12-25T23:58:30.144Z,2.00
